Time;durP1;ratioP1;P1;durP2;ratioP2;P2;SDS_P1;SDS_P2;PMS_P1;PMS_P2;Temp;Humidity;BMP_temperature;BMP_pressure;BME280_temperature;BME280_humidity;BME280_pressure;Samples;Min_cycle;Max_cycle;Signal;HPM_P1;HPM_P2
2022/09/19 00:01:55;;;;;;;6.37;1.63;;;20.80;96.90;;;;;;5072354;28;20166;-68
2022/09/19 00:04:31;;;;;;;3.63;1.10;;;20.80;93.60;;;;;;5071930;28;20180;-69
2022/09/19 00:07:00;;;;;;;5.43;1.13;;;20.60;93.10;;;;;;5071901;28;20699;-65
2022/09/19 00:09:31;;;;;;;3.27;1.20;;;20.50;93.50;;;;;;5072176;28;20193;-68
2022/09/19 00:11:59;;;;;;;3.90;1.27;;;20.80;94.70;;;;;;5071705;28;20199;-68
2022/09/19 00:14:30;;;;;;;3.00;1.13;;;20.90;92.90;;;;;;5070839;28;20584;-68
2022/09/19 00:17:02;;;;;;;3.27;1.07;;;20.90;94.20;;;;;;5071533;28;20176;-68
2022/09/19 00:19:30;;;;;;;5.20;1.47;;;20.90;90.80;;;;;;5072141;28;20180;-66
2022/09/19 00:22:03;;;;;;;5.33;1.40;;;20.90;91.30;;;;;;5070580;28;20176;-66
2022/09/19 00:24:46;;;;;;;6.40;0.97;;;21.20;93.30;;;;;;5076649;28;20310;-66
2022/09/19 00:27:25;;;;;;;5.03;1.23;;;21.70;84.10;;;;;;5071427;28;20305;-66
2022/09/19 00:29:54;;;;;;;3.13;1.00;;;21.60;88.10;;;;;;5071531;28;20835;-66
2022/09/19 00:32:24;;;;;;;1.93;0.77;;;21.90;88.70;;;;;;5071244;28;20191;-66
2022/09/19 00:34:54;;;;;;;7.10;1.10;;;22.80;83.80;;;;;;5071441;28;20191;-67
2022/09/19 00:37:22;;;;;;;3.33;0.80;;;22.70;74.60;;;;;;5071616;28;20237;-67
2022/09/19 00:39:51;;;;;;;4.93;1.47;;;22.90;74.10;;;;;;5071524;28;20201;-68
2022/09/19 00:42:22;;;;;;;3.77;1.10;;;22.80;75.50;;;;;;5071649;28;20180;-67
2022/09/19 00:44:52;;;;;;;3.73;1.17;;;22.70;77.00;;;;;;5071428;28;20275;-67
2022/09/19 00:47:25;;;;;;;3.37;0.83;;;22.90;73.30;;;;;;5071617;28;20179;-67
2022/09/19 00:49:55;;;;;;;2.77;1.13;;;23.60;72.80;;;;;;5072120;28;20259;-67
2022/09/19 00:52:59;;;;;;;3.60;1.00;;;23.80;67.60;;;;;;5063676;28;20184;-67
2022/09/19 00:55:27;;;;;;;4.87;1.07;;;23.70;64.90;;;;;;5042108;28;20212;-65
2022/09/19 00:58:12;;;;;;;4.20;0.80;;;23.90;64.10;;;;;;5071501;28;20176;-66
2022/09/19 01:00:40;;;;;;;2.90;0.93;;;24.10;61.50;;;;;;5071500;28;20204;-67
2022/09/19 01:03:09;;;;;;;2.23;1.10;;;24.10;58.90;;;;;;5070866;28;20181;-67
2022/09/19 01:05:56;;;;;;;4.73;1.30;;;24.10;60.50;;;;;;5071607;28;20176;-68
2022/09/19 01:08:36;;;;;;;4.13;1.43;;;24.00;59.00;;;;;;5071307;28;20184;-66
2022/09/19 01:11:28;;;;;;;2.83;0.90;;;24.40;56.20;;;;;;5071332;28;20180;-68
2022/09/19 01:14:15;;;;;;;2.80;1.33;;;24.50;53.90;;;;;;5071096;28;20222;-67
2022/09/19 01:16:51;;;;;;;2.07;1.07;;;24.40;53.10;;;;;;5068742;28;20248;-66
2022/09/19 01:19:26;;;;;;;3.27;1.17;;;24.60;54.50;;;;;;5070902;28;20183;-67
2022/09/19 01:22:09;;;;;;;3.43;1.20;;;24.60;53.90;;;;;;5071523;28;20267;-66
2022/09/19 01:25:18;;;;;;;2.33;1.00;;;24.50;56.60;;;;;;5070758;28;20223;-67
2022/09/19 01:28:11;;;;;;;2.67;1.13;;;24.40;53.30;;;;;;5064725;28;20186;-67
2022/09/19 01:30:47;;;;;;;4.70;1.20;;;24.40;54.80;;;;;;5070304;28;20257;-67
2022/09/19 01:33:20;;;;;;;3.90;0.87;;;24.20;52.60;;;;;;5070401;28;20635;-68
2022/09/19 01:35:55;;;;;;;3.50;1.17;;;23.70;55.40;;;;;;5051174;28;20238;-67
2022/09/19 01:38:27;;;;;;;4.67;1.47;;;24.00;54.20;;;;;;5058379;28;20184;-66
2022/09/19 01:40:56;;;;;;;2.30;1.00;;;23.70;54.70;;;;;;5055742;28;20211;-68
2022/09/19 01:43:25;;;;;;;4.30;1.47;;;23.30;54.70;;;;;;5073686;28;20703;-68
2022/09/19 01:45:57;;;;;;;5.93;1.00;;;23.30;58.70;;;;;;5075012;28;20523;-68
2022/09/19 01:48:58;;;;;;;2.43;0.97;;;23.80;57.30;;;;;;5074433;28;20219;-68
2022/09/19 01:51:34;;;;;;;4.03;1.27;;;24.60;55.60;;;;;;5062929;28;20203;-67
2022/09/19 01:54:08;;;;;;;3.63;1.17;;;24.60;53.90;;;;;;5074391;28;20230;-68
2022/09/19 01:57:03;;;;;;;8.50;1.27;;;24.10;53.80;;;;;;5074450;28;20180;-66
2022/09/19 01:59:48;;;;;;;4.47;0.90;;;23.90;53.80;;;;;;5073842;28;20209;-66
2022/09/19 02:02:46;;;;;;;2.43;0.77;;;24.10;55.80;;;;;;5061376;28;20184;-67
2022/09/19 02:05:36;;;;;;;2.07;0.70;;;24.60;54.10;;;;;;5074392;28;20196;-67
2022/09/19 02:08:41;;;;;;;1.23;0.70;;;24.90;52.50;;;;;;5074196;28;20192;-66
2022/09/19 02:11:19;;;;;;;1.47;0.93;;;24.60;51.60;;;;;;5019420;28;20198;-68
2022/09/19 02:14:16;;;;;;;4.47;0.93;;;24.90;51.00;;;;;;5073677;28;20214;-69
2022/09/19 02:17:03;;;;;;;1.87;0.80;;;25.20;53.70;;;;;;5072860;28;20196;-68
2022/09/19 02:19:48;;;;;;;4.83;0.90;;;25.30;50.80;;;;;;5068598;28;20187;-67
2022/09/19 02:22:20;;;;;;;3.63;1.00;;;25.70;48.70;;;;;;5069114;28;20242;-67
2022/09/19 02:24:51;;;;;;;3.23;0.97;;;25.80;48.30;;;;;;5060543;28;20239;-67
2022/09/19 02:27:25;;;;;;;3.03;0.87;;;25.10;48.50;;;;;;5073426;28;20184;-67
2022/09/19 02:30:05;;;;;;;4.07;0.90;;;24.60;51.40;;;;;;5063683;28;20183;-66
2022/09/19 02:32:35;;;;;;;5.57;0.77;;;24.70;49.40;;;;;;5074074;28;20187;-67
2022/09/19 02:35:04;;;;;;;4.00;1.33;;;24.20;50.40;;;;;;5056825;28;20828;-69
2022/09/19 02:37:35;;;;;;;1.80;0.80;;;24.50;52.80;;;;;;5070704;28;20181;-67
2022/09/19 02:40:10;;;;;;;1.67;0.87;;;24.50;52.40;;;;;;5064266;28;20193;-66
2022/09/19 02:42:50;;;;;;;2.40;0.70;;;25.00;51.10;;;;;;5056559;28;20191;-68
2022/09/19 02:45:36;;;;;;;2.93;0.70;;;24.50;48.30;;;;;;5071419;28;20579;-68
2022/09/19 02:48:10;;;;;;;2.83;1.03;;;24.20;50.00;;;;;;5064557;28;20184;-67
2022/09/19 02:50:41;;;;;;;4.13;0.90;;;24.00;51.00;;;;;;5065079;28;20187;-69
2022/09/19 02:53:16;;;;;;;1.77;1.00;;;24.00;51.10;;;;;;5073592;28;20303;-68
2022/09/19 02:55:50;;;;;;;1.97;0.90;;;24.30;50.10;;;;;;5073462;28;20270;-69
2022/09/19 02:58:21;;;;;;;5.57;0.90;;;24.70;51.30;;;;;;5070064;28;20167;-66
2022/09/19 03:00:56;;;;;;;3.13;0.70;;;25.20;54.00;;;;;;5073137;28;20190;-66
2022/09/19 03:06:41;;;;;;;1.43;0.60;;;25.00;47.90;;;;;;5065073;28;20198;-66
2022/09/19 03:09:11;;;;;;;2.23;0.70;;;25.20;50.30;;;;;;5071934;28;20603;-67
2022/09/19 03:11:45;;;;;;;1.93;0.80;;;25.30;50.30;;;;;;5073332;28;20190;-67
2022/09/19 03:14:13;;;;;;;5.37;0.70;;;25.10;45.10;;;;;;5072917;28;20246;-68
2022/09/19 03:16:45;;;;;;;3.97;0.70;;;25.20;48.20;;;;;;5073055;28;20226;-67
2022/09/19 03:19:12;;;;;;;3.43;0.80;;;25.20;49.20;;;;;;5072815;28;20271;-67
2022/09/19 03:21:41;;;;;;;2.30;0.90;;;25.60;50.20;;;;;;5072676;28;20172;-69
2022/09/19 03:24:10;;;;;;;2.27;1.10;;;25.50;47.30;;;;;;5071920;28;20269;-67
2022/09/19 03:26:39;;;;;;;3.53;0.73;;;25.50;43.80;;;;;;5072560;28;20183;-67
2022/09/19 03:29:09;;;;;;;2.97;0.90;;;25.50;46.50;;;;;;5071983;28;20192;-67
2022/09/19 03:31:36;;;;;;;2.80;1.00;;;25.90;47.60;;;;;;5072451;28;20577;-66
2022/09/19 03:34:06;;;;;;;1.60;0.70;;;25.90;45.70;;;;;;5071705;28;20247;-67
2022/09/19 03:36:34;;;;;;;6.03;0.93;;;25.60;43.50;;;;;;5072445;28;20275;-67
2022/09/19 03:39:02;;;;;;;2.53;0.67;;;25.20;42.30;;;;;;5067347;28;20212;-67
2022/09/19 03:41:31;;;;;;;6.83;0.70;;;24.80;43.30;;;;;;5063610;28;20676;-66
2022/09/19 03:44:01;;;;;;;3.23;0.60;;;25.00;43.60;;;;;;5065816;28;20183;-66
2022/09/19 03:46:33;;;;;;;2.87;0.80;;;25.10;44.70;;;;;;5055087;28;20188;-66
2022/09/19 03:49:03;;;;;;;3.60;0.70;;;25.30;44.20;;;;;;5070756;28;20278;-67
2022/09/19 03:51:33;;;;;;;1.00;0.60;;;25.10;41.70;;;;;;5066387;28;20180;-67
2022/09/19 03:54:01;;;;;;;2.20;0.77;;;24.70;42.20;;;;;;5061896;28;20223;-66
2022/09/19 03:56:29;;;;;;;3.80;0.60;;;24.70;46.30;;;;;;5061739;28;20195;-66
2022/09/19 03:58:57;;;;;;;2.67;0.70;;;24.90;44.70;;;;;;5065557;28;20191;-67
2022/09/19 04:01:25;;;;;;;2.83;0.70;;;25.00;44.50;;;;;;5071364;28;20188;-66
2022/09/19 04:03:53;;;;;;;2.23;0.80;;;25.00;42.00;;;;;;5071292;28;20188;-66
2022/09/19 04:06:21;;;;;;;2.73;0.70;;;24.70;43.60;;;;;;5072039;28;20553;-67
2022/09/19 04:08:49;;;;;;;1.07;0.53;;;24.90;43.90;;;;;;5071802;28;20179;-67
2022/09/19 04:11:16;;;;;;;1.50;0.70;;;25.20;42.90;;;;;;5071891;28;20191;-67
2022/09/19 04:13:44;;;;;;;2.57;0.57;;;25.20;39.10;;;;;;5067915;28;20265;-67
2022/09/19 04:16:17;;;;;;;2.90;0.70;;;24.90;36.80;;;;;;5072079;28;20225;-68
2022/09/19 04:18:49;;;;;;;6.87;0.50;;;24.70;39.80;;;;;;5071347;28;20191;-69
2022/09/19 04:21:18;;;;;;;1.90;0.63;;;24.60;37.70;;;;;;5071597;28;20188;-68
2022/09/19 04:23:46;;;;;;;1.33;0.70;;;24.50;38.80;;;;;;5071159;28;20189;-68
2022/09/19 04:26:14;;;;;;;3.97;0.50;;;24.00;39.80;;;;;;5071282;28;20786;-67
2022/09/19 04:28:46;;;;;;;3.70;0.60;;;23.20;38.10;;;;;;5071415;28;20183;-67
2022/09/19 04:31:14;;;;;;;1.00;0.60;;;22.90;40.00;;;;;;5071335;28;20187;-66
2022/09/19 04:33:42;;;;;;;1.10;0.50;;;22.80;41.10;;;;;;5067398;28;20213;-66
2022/09/19 04:36:09;;;;;;;1.00;0.60;;;23.20;42.00;;;;;;5064260;28;20183;-69
2022/09/19 04:38:37;;;;;;;3.30;0.63;;;23.80;41.20;;;;;;5071015;28;20640;-68
2022/09/19 04:41:06;;;;;;;1.23;0.40;;;24.20;41.50;;;;;;5071092;28;20179;-66
2022/09/19 04:43:37;;;;;;;2.57;0.40;;;24.30;37.90;;;;;;5071100;28;20188;-70
2022/09/19 04:46:06;;;;;;;3.00;0.70;;;24.50;36.70;;;;;;5071414;28;20172;-68
2022/09/19 04:48:33;;;;;;;1.20;0.40;;;24.40;39.10;;;;;;5071404;28;20627;-70
2022/09/19 04:51:04;;;;;;;1.97;0.63;;;24.50;31.50;;;;;;5071141;28;20179;-69
2022/09/19 04:53:33;;;;;;;0.60;0.40;;;24.10;28.20;;;;;;5071120;28;20314;-69
2022/09/19 04:56:01;;;;;;;1.90;0.40;;;24.00;29.30;;;;;;5071282;28;20210;-69
2022/09/19 04:58:29;;;;;;;0.97;0.50;;;23.90;26.40;;;;;;5071234;28;20652;-69
2022/09/19 05:00:57;;;;;;;0.73;0.50;;;23.90;29.20;;;;;;5071287;28;20178;-68
2022/09/19 05:03:26;;;;;;;1.60;0.53;;;23.90;28.00;;;;;;5070892;28;20198;-68
2022/09/19 05:05:55;;;;;;;0.40;0.40;;;23.90;26.80;;;;;;5071113;28;20201;-68
2022/09/19 05:08:29;;;;;;;1.00;0.73;;;24.00;26.40;;;;;;5069719;28;20266;-69
2022/09/19 05:10:59;;;;;;;1.27;0.50;;;23.90;27.10;;;;;;5069091;28;20190;-66
2022/09/19 05:13:31;;;;;;;1.67;0.50;;;23.90;27.20;;;;;;5073435;28;20298;-66
2022/09/19 05:16:01;;;;;;;1.47;0.50;;;23.90;25.40;;;;;;5075163;28;20239;-66
2022/09/19 05:18:37;;;;;;;0.30;0.30;;;23.70;25.10;;;;;;5074906;28;20183;-69
2022/09/19 05:21:13;;;;;;;0.57;0.40;;;23.70;25.10;;;;;;5075034;28;20244;-69
2022/09/19 05:23:42;;;;;;;1.07;0.60;;;23.90;24.80;;;;;;5074945;28;20179;-67
2022/09/19 05:26:17;;;;;;;0.93;0.50;;;23.60;23.00;;;;;;5052158;28;20199;-67
2022/09/19 05:28:46;;;;;;;2.67;0.60;;;23.60;24.60;;;;;;5054551;28;20210;-67
2022/09/19 05:31:18;;;;;;;1.17;0.50;;;23.50;26.20;;;;;;5055124;28;20177;-69
2022/09/19 05:33:49;;;;;;;0.83;0.50;;;23.40;25.10;;;;;;5054651;28;20682;-68
2022/09/19 05:36:20;;;;;;;0.67;0.50;;;23.20;23.70;;;;;;5054705;28;20518;-69
2022/09/19 05:38:49;;;;;;;0.43;0.40;;;23.20;24.70;;;;;;5054969;28;20227;-67
2022/09/19 05:41:17;;;;;;;3.50;0.90;;;23.30;23.80;;;;;;5053935;28;20658;-68
2022/09/19 05:43:48;;;;;;;1.90;0.70;;;23.40;26.90;;;;;;5054791;28;20181;-68
2022/09/19 05:46:16;;;;;;;2.80;0.80;;;23.40;24.80;;;;;;5054461;28;20169;-68
2022/09/19 05:48:47;;;;;;;2.47;0.60;;;23.50;23.20;;;;;;5054663;28;20185;-67
2022/09/19 05:51:14;;;;;;;0.60;0.60;;;23.60;22.60;;;;;;5054629;28;20181;-69
2022/09/19 05:53:59;;;;;;;0.90;0.60;;;23.50;21.40;;;;;;5054747;28;20316;-68
2022/09/19 05:56:26;;;;;;;1.80;0.60;;;23.60;22.10;;;;;;5053104;28;20219;-68
2022/09/19 05:58:59;;;;;;;2.07;0.60;;;23.50;19.70;;;;;;5054495;28;20180;-67
2022/09/19 06:01:26;;;;;;;1.83;0.53;;;23.40;20.50;;;;;;5054967;28;20195;-68
2022/09/19 06:03:55;;;;;;;1.87;0.50;;;23.30;19.80;;;;;;5054280;28;20679;-67
2022/09/19 06:06:23;;;;;;;1.13;0.43;;;23.30;21.70;;;;;;5052387;28;20241;-66
2022/09/19 06:08:58;;;;;;;0.80;0.60;;;23.30;19.80;;;;;;5054090;28;20257;-69
2022/09/19 06:11:32;;;;;;;1.93;0.70;;;23.20;21.30;;;;;;5054154;28;20172;-68
2022/09/19 06:14:14;;;;;;;1.00;0.57;;;23.20;21.10;;;;;;5054366;28;20216;-68
2022/09/19 06:16:42;;;;;;;1.13;0.57;;;23.20;21.50;;;;;;5053958;28;20184;-68
2022/09/19 06:19:10;;;;;;;0.93;0.60;;;23.10;22.50;;;;;;5054243;28;20208;-68
2022/09/19 06:21:38;;;;;;;3.53;0.57;;;23.10;21.30;;;;;;5053329;28;20242;-68
2022/09/19 06:24:09;;;;;;;2.43;0.40;;;23.10;21.00;;;;;;5056200;28;20227;-70
2022/09/19 06:26:39;;;;;;;1.60;0.60;;;23.00;21.20;;;;;;5073754;28;20200;-67
2022/09/19 06:29:07;;;;;;;1.93;0.63;;;23.00;21.30;;;;;;5073585;28;20193;-67
2022/09/19 06:31:39;;;;;;;2.33;0.40;;;22.90;21.30;;;;;;5073917;28;20183;-67
2022/09/19 06:34:07;;;;;;;8.30;0.67;;;22.90;21.80;;;;;;5073619;28;20794;-68
2022/09/19 06:36:37;;;;;;;1.27;0.50;;;23.00;21.60;;;;;;5072046;28;20179;-68
2022/09/19 06:39:06;;;;;;;4.07;0.90;;;23.10;20.50;;;;;;5073598;28;20209;-67
2022/09/19 06:41:36;;;;;;;2.20;0.73;;;23.00;20.80;;;;;;5071680;28;20176;-69
2022/09/19 06:44:16;;;;;;;0.60;0.57;;;22.90;20.50;;;;;;5071872;28;20195;-68
2022/09/19 06:46:45;;;;;;;2.80;0.70;;;22.80;19.70;;;;;;5073206;28;20199;-67
2022/09/19 06:49:14;;;;;;;2.93;0.80;;;22.80;20.90;;;;;;5071762;28;20273;-67
2022/09/19 06:51:42;;;;;;;1.77;0.70;;;22.80;22.70;;;;;;5073495;28;20324;-69
2022/09/19 06:54:10;;;;;;;2.03;0.80;;;22.70;24.10;;;;;;5070968;28;20675;-69
2022/09/19 06:56:41;;;;;;;3.13;0.73;;;22.60;23.20;;;;;;5072665;28;20209;-69
2022/09/19 06:59:19;;;;;;;1.13;0.60;;;22.60;23.90;;;;;;5071238;28;20264;-68
2022/09/19 07:01:47;;;;;;;3.10;0.73;;;22.40;24.40;;;;;;5073184;28;20186;-69
2022/09/19 07:04:16;;;;;;;2.23;0.77;;;22.20;23.30;;;;;;5073173;28;20183;-68
2022/09/19 07:06:45;;;;;;;1.03;0.80;;;21.90;23.50;;;;;;5072757;28;20187;-66
2022/09/19 07:09:13;;;;;;;1.10;0.90;;;21.70;24.40;;;;;;5072578;28;20184;-66
2022/09/19 07:11:41;;;;;;;3.10;1.00;;;21.50;24.70;;;;;;5073209;28;20176;-69
2022/09/19 07:14:10;;;;;;;3.13;0.90;;;21.40;25.90;;;;;;5073095;28;20253;-68
2022/09/19 07:16:42;;;;;;;2.27;0.90;;;21.30;26.40;;;;;;5071047;28;20515;-68
2022/09/19 07:19:12;;;;;;;1.30;0.90;;;21.10;26.10;;;;;;5071887;28;20231;-68
2022/09/19 07:21:40;;;;;;;5.70;0.90;;;21.00;26.60;;;;;;5072066;28;20580;-66
2022/09/19 07:24:08;;;;;;;6.07;2.20;;;20.90;27.60;;;;;;5072177;28;20212;-68
2022/09/19 07:26:35;;;;;;;2.27;1.00;;;20.70;29.30;;;;;;5072936;28;20199;-67
2022/09/19 07:29:05;;;;;;;3.20;1.07;;;20.60;36.10;;;;;;5069673;28;20189;-66
2022/09/19 07:31:33;;;;;;;5.93;1.73;;;20.40;45.20;;;;;;5062933;28;20645;-67
2022/09/19 07:34:01;;;;;;;5.50;1.90;;;20.00;56.10;;;;;;5051520;28;20212;-68
2022/09/19 07:36:29;;;;;;;15.20;4.33;;;19.70;66.60;;;;;;5051761;28;20607;-68
2022/09/19 07:39:01;;;;;;;8.53;3.10;;;19.40;77.60;;;;;;5052602;28;20284;-67
2022/09/19 07:41:29;;;;;;;6.20;1.77;;;19.20;86.40;;;;;;5067328;28;20172;-68
2022/09/19 07:43:56;;;;;;;3.07;1.00;;;19.00;90.90;;;;;;5072492;28;20184;-69
2022/09/19 07:46:25;;;;;;;1.97;1.00;;;18.90;91.90;;;;;;5072794;28;20188;-66
2022/09/19 07:48:54;;;;;;;2.20;0.90;;;18.80;95.40;;;;;;5072400;28;20180;-68
2022/09/19 07:51:23;;;;;;;2.73;0.67;;;18.70;96.80;;;;;;5072440;28;20172;-66
2022/09/19 07:53:50;;;;;;;2.60;0.73;;;18.60;98.60;;;;;;5072651;28;20247;-67
2022/09/19 07:56:18;;;;;;;1.40;0.90;;;18.50;99.20;;;;;;5072404;28;20270;-68
2022/09/19 07:58:46;;;;;;;2.47;0.70;;;18.30;99.90;;;;;;5071117;28;20275;-66
2022/09/19 08:01:14;;;;;;;1.77;0.80;;;18.10;99.90;;;;;;5072293;28;20195;-69
2022/09/19 08:03:44;;;;;;;2.03;1.00;;;18.10;99.90;;;;;;5062886;28;20187;-67
2022/09/19 08:06:15;;;;;;;1.20;0.70;;;18.00;99.90;;;;;;5072294;28;20192;-69
2022/09/19 08:08:43;;;;;;;7.60;1.20;;;17.80;99.90;;;;;;5053447;28;20589;-67
2022/09/19 08:11:11;;;;;;;2.87;0.90;;;17.60;99.90;;;;;;5068518;28;20270;-66
2022/09/19 08:13:43;;;;;;;2.20;1.00;;;17.40;99.90;;;;;;5051493;28;20586;-67
2022/09/19 08:16:10;;;;;;;4.27;1.00;;;17.30;99.90;;;;;;5052188;28;20184;-67
2022/09/19 08:18:42;;;;;;;3.23;1.10;;;17.30;99.90;;;;;;5052167;28;20231;-68
2022/09/19 08:21:10;;;;;;;2.97;0.80;;;17.20;99.90;;;;;;5052345;28;20258;-66
2022/09/19 08:23:41;;;;;;;4.30;1.03;;;17.00;99.90;;;;;;5062330;28;20176;-67
2022/09/19 08:26:10;;;;;;;3.73;1.37;;;16.90;99.90;;;;;;5072042;28;20236;-67
2022/09/19 08:28:38;;;;;;;2.93;1.00;;;16.80;99.90;;;;;;5072015;28;20174;-66
2022/09/19 08:31:07;;;;;;;3.63;1.00;;;16.70;99.90;;;;;;5071694;28;20187;-66
2022/09/19 08:33:35;;;;;;;4.53;1.00;;;16.70;99.90;;;;;;5071664;28;20223;-67
2022/09/19 08:36:04;;;;;;;2.80;0.90;;;16.60;99.90;;;;;;5071913;28;20180;-67
2022/09/19 08:38:32;;;;;;;1.43;0.93;;;16.50;99.90;;;;;;5070760;28;20222;-67
2022/09/19 08:41:25;;;;;;;3.77;1.37;;;16.40;99.90;;;;;;5071548;28;20172;-66
2022/09/19 08:44:16;;;;;;;2.23;1.10;;;16.40;99.90;;;;;;5071609;28;20211;-67
2022/09/19 08:47:04;;;;;;;3.37;1.00;;;16.40;99.90;;;;;;5071406;28;20626;-66
2022/09/19 08:49:40;;;;;;;3.67;0.70;;;16.30;99.90;;;;;;5071927;28;20268;-67
2022/09/19 08:52:17;;;;;;;3.33;1.00;;;16.20;99.90;;;;;;5072000;28;20217;-67
2022/09/19 08:54:51;;;;;;;4.10;1.30;;;16.10;99.90;;;;;;5071462;28;20223;-67
2022/09/19 08:57:46;;;;;;;2.23;1.03;;;15.90;99.90;;;;;;5071819;28;20194;-68
2022/09/19 09:00:21;;;;;;;2.40;1.10;;;15.80;99.90;;;;;;5071576;28;20172;-68
2022/09/19 09:02:58;;;;;;;4.83;1.40;;;15.70;99.90;;;;;;5071462;28;20198;-67
2022/09/19 09:05:34;;;;;;;6.87;1.20;;;15.60;99.90;;;;;;5071581;28;20692;-67
2022/09/19 09:08:45;;;;;;;8.77;1.60;;;15.50;99.90;;;;;;5071592;28;20191;-68
2022/09/19 09:11:13;;;;;;;4.83;1.10;;;15.40;99.90;;;;;;5055066;28;20180;-68
2022/09/19 09:14:04;;;;;;;2.23;1.10;;;15.30;99.90;;;;;;5071463;28;20209;-67
2022/09/19 09:16:53;;;;;;;3.60;1.60;;;15.30;99.90;;;;;;5071539;28;20176;-67
2022/09/19 09:19:50;;;;;;;4.83;1.20;;;15.20;99.90;;;;;;5071509;28;20202;-69
2022/09/19 09:22:33;;;;;;;3.93;1.20;;;15.10;99.90;;;;;;5071594;28;20192;-66
2022/09/19 09:25:19;;;;;;;2.97;1.47;;;15.10;99.90;;;;;;5051291;28;20227;-67
2022/09/19 09:28:06;;;;;;;6.20;1.50;;;15.10;99.90;;;;;;5051512;28;20194;-70
2022/09/19 09:30:44;;;;;;;3.10;1.60;;;14.90;99.90;;;;;;5059684;28;20203;-66
2022/09/19 09:33:25;;;;;;;3.57;1.83;;;14.90;99.90;;;;;;5070680;28;20286;-67
2022/09/19 09:36:04;;;;;;;6.03;1.90;;;14.80;99.90;;;;;;5071667;28;20187;-67
2022/09/19 09:38:50;;;;;;;3.20;1.63;;;14.80;99.90;;;;;;5071454;28;20256;-66
2022/09/19 09:44:15;;;;;;;4.13;1.60;;;14.60;99.90;;;;;;5064817;28;20233;-68
2022/09/19 09:47:01;;;;;;;3.43;1.47;;;14.60;99.90;;;;;;5071803;28;20194;-67
2022/09/19 09:49:30;;;;;;;5.07;1.90;;;14.50;99.90;;;;;;5071471;28;20194;-68
2022/09/19 09:52:21;;;;;;;4.27;1.80;;;14.40;99.90;;;;;;5071432;28;20621;-67
2022/09/19 09:57:50;;;;;;;7.30;2.07;;;14.30;99.90;;;;;;5069623;28;20193;-69
2022/09/19 10:03:35;;;;;;;8.77;2.30;;;14.20;99.90;;;;;;5075387;28;20607;-68
2022/09/19 10:06:14;;;;;;;4.97;2.10;;;14.10;99.90;;;;;;5067180;28;20746;-69
2022/09/19 10:08:59;;;;;;;4.90;1.97;;;14.10;99.90;;;;;;5053568;28;20195;-69
2022/09/19 10:11:42;;;;;;;5.20;1.77;;;14.10;99.90;;;;;;5053937;28;20594;-68
2022/09/19 10:14:23;;;;;;;3.17;1.93;;;14.00;99.90;;;;;;5063186;28;20314;-68
2022/09/19 10:16:56;;;;;;;4.50;1.90;;;13.80;99.90;;;;;;5061713;28;20190;-67
2022/09/19 10:19:44;;;;;;;6.37;2.37;;;13.70;99.90;;;;;;5073744;28;20248;-68
2022/09/19 10:22:16;;;;;;;3.97;2.50;;;13.60;99.90;;;;;;5074681;28;20584;-68
2022/09/19 10:24:55;;;;;;;7.20;2.50;;;13.70;99.90;;;;;;5072634;28;20260;-67
2022/09/19 10:27:43;;;;;;;6.37;2.60;;;13.70;99.90;;;;;;5074559;28;20256;-68
2022/09/19 10:30:20;;;;;;;5.80;2.53;;;13.60;99.90;;;;;;5074976;28;20210;-68
2022/09/19 10:32:55;;;;;;;6.90;2.53;;;13.50;99.90;;;;;;5074663;28;20177;-70
2022/09/19 10:35:36;;;;;;;5.60;2.70;;;13.40;99.90;;;;;;5074205;28;20195;-70
2022/09/19 10:38:21;;;;;;;7.70;2.40;;;13.40;99.90;;;;;;5074093;28;20186;-67
2022/09/19 10:40:57;;;;;;;5.50;2.47;;;13.30;99.90;;;;;;5081611;28;20252;-70
2022/09/19 10:43:37;;;;;;;6.53;2.90;;;13.30;99.90;;;;;;5075334;28;20195;-70
2022/09/19 10:46:20;;;;;;;6.23;3.33;;;13.10;99.90;;;;;;5075128;28;21000;-69
2022/09/19 10:48:58;;;;;;;8.33;3.00;;;13.10;99.90;;;;;;5074051;28;20182;-68
2022/09/19 10:51:37;;;;;;;10.53;3.17;;;13.10;99.90;;;;;;5072998;28;20196;-69
2022/09/19 10:54:45;;;;;;;8.60;3.67;;;13.10;99.90;;;;;;5074140;28;20209;-67
2022/09/19 10:57:45;;;;;;;8.50;3.60;;;13.00;99.90;;;;;;5012259;28;20219;-67
2022/09/19 11:00:47;;;;;;;4.70;2.60;;;12.90;99.90;;;;;;5034645;28;20189;-67
2022/09/19 11:03:32;;;;;;;7.43;3.00;;;12.80;99.90;;;;;;5073652;28;20188;-67
2022/09/19 11:06:10;;;;;;;6.07;3.57;;;12.70;99.90;;;;;;5071188;28;20186;-67
2022/09/19 11:08:47;;;;;;;6.70;3.40;;;12.70;99.90;;;;;;5072601;28;20193;-69
2022/09/19 11:11:48;;;;;;;7.30;3.53;;;12.80;99.90;;;;;;5073322;28;20195;-66
2022/09/19 11:14:34;;;;;;;9.57;3.27;;;12.80;99.90;;;;;;5066949;28;20704;-66
2022/09/19 11:17:19;;;;;;;7.20;3.23;;;12.80;99.90;;;;;;5073479;28;20215;-67
2022/09/19 11:20:16;;;;;;;6.70;2.67;;;12.60;99.90;;;;;;5073441;28;20180;-67
2022/09/19 11:23:13;;;;;;;5.33;2.30;;;12.60;99.90;;;;;;5073895;28;20178;-67
2022/09/19 11:25:53;;;;;;;7.80;3.20;;;12.50;99.90;;;;;;5073516;28;20309;-68
2022/09/19 11:28:44;;;;;;;5.03;3.07;;;12.50;99.90;;;;;;5073378;28;20182;-67
2022/09/19 11:31:48;;;;;;;6.07;2.80;;;12.40;99.90;;;;;;5065451;28;20215;-67
2022/09/19 11:34:27;;;;;;;3.27;2.40;;;12.30;99.90;;;;;;5073046;28;20262;-66
2022/09/19 11:37:28;;;;;;;5.73;2.67;;;12.30;99.90;;;;;;5073036;28;20180;-67
2022/09/19 11:40:23;;;;;;;7.23;2.80;;;12.20;99.90;;;;;;5072945;28;20188;-67
2022/09/19 11:43:15;;;;;;;5.80;2.43;;;12.20;99.90;;;;;;5071508;28;20665;-67
2022/09/19 11:46:03;;;;;;;6.90;2.77;;;12.20;99.90;;;;;;5073057;28;20190;-66
2022/09/19 11:49:09;;;;;;;5.80;2.77;;;12.10;99.90;;;;;;5062918;28;20192;-70
2022/09/19 11:52:06;;;;;;;5.97;2.20;;;12.10;99.90;;;;;;5072734;28;20590;-69
2022/09/19 11:55:00;;;;;;;3.83;2.50;;;12.00;99.90;;;;;;5072603;28;20218;-68
2022/09/19 11:57:41;;;;;;;5.17;2.17;;;11.90;99.90;;;;;;5060135;28;20183;-68
2022/09/19 12:00:26;;;;;;;8.07;2.10;;;11.90;99.90;;;;;;5072511;28;20199;-68
2022/09/19 12:03:26;;;;;;;2.63;1.80;;;11.90;99.90;;;;;;5071242;28;20185;-67
2022/09/19 12:06:40;;;;;;;4.77;2.10;;;11.80;99.90;;;;;;5072379;28;20795;-68
2022/09/19 12:09:22;;;;;;;3.00;2.13;;;11.80;99.90;;;;;;5049013;28;20188;-68
2022/09/19 12:11:58;;;;;;;4.57;2.23;;;11.70;99.90;;;;;;5071273;28;20266;-70
2022/09/19 12:15:00;;;;;;;4.07;2.10;;;11.60;99.90;;;;;;5072517;28;20266;-68
2022/09/19 12:17:42;;;;;;;3.90;2.10;;;11.60;99.90;;;;;;5040295;28;20195;-67
2022/09/19 12:20:13;;;;;;;8.37;2.67;;;11.60;99.90;;;;;;5071355;28;20683;-68
2022/09/19 12:22:56;;;;;;;12.20;2.67;;;11.60;99.90;;;;;;5072619;28;20180;-71
2022/09/19 12:25:31;;;;;;;4.87;2.20;;;11.70;99.90;;;;;;5071735;28;20722;-68
2022/09/19 12:28:10;;;;;;;3.80;2.27;;;11.60;99.90;;;;;;5073609;28;20185;-68
2022/09/19 12:30:44;;;;;;;5.77;2.90;;;11.60;99.90;;;;;;5073449;28;20184;-68
2022/09/19 12:33:18;;;;;;;5.17;2.73;;;11.50;99.90;;;;;;5073305;28;20237;-69
2022/09/19 12:35:51;;;;;;;6.10;3.40;;;11.50;99.90;;;;;;5073221;28;20199;-69
2022/09/19 12:38:51;;;;;;;5.40;2.70;;;11.40;99.90;;;;;;5072227;28;20308;-67
2022/09/19 12:41:28;;;;;;;4.23;2.40;;;11.40;99.90;;;;;;5073659;28;20200;-67
2022/09/19 12:44:13;;;;;;;5.43;3.20;;;11.40;99.90;;;;;;5073949;28;20651;-70
2022/09/19 12:46:56;;;;;;;5.17;2.60;;;11.30;99.90;;;;;;5073116;28;20178;-68
2022/09/19 12:49:56;;;;;;;4.87;2.47;;;11.20;99.90;;;;;;5072995;28;20185;-69
2022/09/19 12:52:34;;;;;;;5.60;2.10;;;11.20;99.90;;;;;;5073102;28;20181;-71
2022/09/19 12:55:14;;;;;;;4.90;2.13;;;11.10;99.90;;;;;;5073246;28;20327;-70
2022/09/19 12:58:16;;;;;;;5.27;2.20;;;11.00;99.90;;;;;;5071888;28;20183;-68
2022/09/19 13:00:45;;;;;;;2.73;1.83;;;11.00;99.90;;;;;;5073599;28;20224;-68
2022/09/19 13:03:38;;;;;;;3.40;1.93;;;11.00;99.90;;;;;;5072437;28;20177;-69
2022/09/19 13:06:20;;;;;;;6.27;1.90;;;10.90;99.90;;;;;;5072654;28;20304;-67
2022/09/19 13:09:01;;;;;;;6.20;2.03;;;10.80;99.90;;;;;;5073185;28;20178;-70
2022/09/19 13:11:44;;;;;;;3.13;2.00;;;10.70;99.90;;;;;;5073210;28;20273;-72
2022/09/19 13:14:34;;;;;;;2.33;1.60;;;10.70;99.90;;;;;;5071167;28;20218;-67
2022/09/19 13:25:41;;;;;;;3.73;1.90;;;10.60;99.90;;;;;;5073047;28;20751;-70
2022/09/19 13:28:21;;;;;;;3.80;1.80;;;10.60;99.90;;;;;;5072880;28;20181;-68
2022/09/19 13:30:49;;;;;;;2.97;2.07;;;10.70;99.90;;;;;;5073370;28;20707;-70
2022/09/19 13:33:34;;;;;;;3.87;1.77;;;10.70;99.90;;;;;;5072798;28;20688;-69
2022/09/19 13:36:10;;;;;;;4.10;2.40;;;10.70;99.90;;;;;;5076904;28;20180;-70
2022/09/19 13:38:41;;;;;;;3.77;1.90;;;10.60;99.90;;;;;;5076675;28;20183;-68
2022/09/19 13:41:31;;;;;;;6.30;1.73;;;10.60;99.90;;;;;;5075628;28;20193;-69
2022/09/19 13:44:08;;;;;;;5.03;1.87;;;10.50;99.90;;;;;;5076833;28;20172;-68
2022/09/19 13:47:05;;;;;;;2.97;1.90;;;10.40;99.90;;;;;;5076674;28;20194;-68
2022/09/19 13:49:45;;;;;;;4.33;1.80;;;10.30;99.90;;;;;;5076100;28;20176;-68
2022/09/19 13:52:32;;;;;;;5.23;2.40;;;10.20;99.90;;;;;;5076627;28;20254;-67
2022/09/19 13:55:13;;;;;;;4.53;2.67;;;10.20;99.90;;;;;;5076097;28;20310;-68